Terminal Aerodrome Forecast
Issued by NWS

Home | Current Version | Previous Version | Text Only | Print | Product List | Glossary On
Versions: 1 2 3 4 5 6 7 8 9 10 11 12 13 14 15 16 17 18 19 20
000
FTUS44 KLZK 291500 AAB
TAFHRO
TAF AMD
KHRO 291510Z 2915/3012 09005KT 6SM BR OVC004
     FM291600 09005KT P6SM SCT010 SCT250
     FM291700 09005KT P6SM SCT250
     FM300000 06005KT P6SM BKN250=

USA.gov is the U.S. government's official web portal to all federal, state and local government web resources and services.